createdAt,value
2018-04-14T00:00:56.033Z,68.57
2018-04-14T00:03:24.259Z,66.93
2018-04-14T00:05:52.499Z,77.57
2018-04-14T00:08:20.742Z,73.20
2018-04-14T00:10:49.742Z,71.97
2018-04-14T00:13:17.997Z,71.30
2018-04-14T00:15:47.002Z,73.60
2018-04-14T00:18:15.259Z,75.37
2018-04-14T00:20:44.268Z,75.20
2018-04-14T00:23:13.288Z,79.77
2018-04-14T00:25:41.526Z,75.47
2018-04-14T00:28:10.544Z,72.07
2018-04-14T00:30:38.794Z,74.93
2018-04-14T00:33:07.800Z,77.50
2018-04-14T00:35:36.037Z,74.07
2018-04-14T00:38:04.310Z,76.50
2018-04-14T00:40:32.539Z,70.93
2018-04-14T00:43:00.781Z,72.37
2018-04-14T00:45:29.019Z,72.43
2018-04-14T00:47:57.515Z,70.77
2018-04-14T00:50:25.719Z,69.50
2018-04-14T00:52:53.971Z,69.13
2018-04-14T00:55:22.971Z,67.67
2018-04-14T00:57:51.987Z,72.30
2018-04-14T01:00:20.236Z,71.93
2018-04-14T01:02:49.258Z,71.37
2018-04-14T01:05:17.492Z,67.70
2018-04-14T01:07:46.502Z,69.43
2018-04-14T01:10:14.750Z,70.10
2018-04-14T01:12:42.992Z,78.47
2018-04-14T01:15:11.227Z,66.97
2018-04-14T01:17:39.478Z,68.80
2018-04-14T01:20:11.547Z,75.80
2018-04-14T01:22:40.562Z,72.50
2018-04-14T01:25:08.805Z,68.20
2018-04-14T01:27:37.811Z,73.10
2018-04-14T01:30:06.826Z,74.17
2018-04-14T01:32:35.966Z,72.50
2018-04-14T01:35:04.212Z,70.77
2018-04-14T01:37:32.446Z,72.77
2018-04-14T01:40:01.464Z,74.57
2018-04-14T01:42:29.693Z,71.47
2018-04-14T01:44:57.945Z,71.27
2018-04-14T01:47:26.194Z,73.37
2018-04-14T01:49:54.447Z,75.43
2018-04-14T01:52:22.683Z,73.97
2018-04-14T01:54:50.934Z,71.40
2018-04-14T01:57:19.167Z,69.83
2018-04-14T01:59:47.417Z,71.60
2018-04-14T02:02:16.467Z,72.03
2018-04-14T02:04:44.722Z,71.80
2018-04-14T02:07:12.958Z,70.13
2018-04-14T02:09:41.974Z,71.60
2018-04-14T02:12:10.210Z,76.53
2018-04-14T02:14:38.459Z,76.00
2018-04-14T02:17:06.695Z,74.27
2018-04-14T02:19:34.946Z,69.47
2018-04-14T02:22:04.250Z,79.57
2018-04-14T02:24:33.260Z,72.40
2018-04-14T02:27:01.502Z,74.33
2018-04-14T02:29:29.758Z,69.23
2018-04-14T02:31:57.990Z,75.00
2018-04-14T02:34:26.227Z,69.30
2018-04-14T02:36:55.247Z,68.67
2018-04-14T02:39:23.489Z,70.70
2018-04-14T02:41:51.727Z,73.50
2018-04-14T02:44:19.971Z,73.10
2018-04-14T02:46:48.209Z,66.70
2018-04-14T02:49:16.459Z,68.23
2018-04-14T02:51:44.702Z,62.47
2018-04-14T02:54:13.341Z,68.80
2018-04-14T02:56:41.560Z,64.50
2018-04-14T02:59:09.790Z,69.80
2018-04-14T03:01:38.820Z,76.50
2018-04-14T03:04:07.371Z,74.77
2018-04-14T03:06:36.383Z,76.07
2018-04-14T03:09:05.546Z,76.30
2018-04-14T03:11:33.840Z,84.97
2018-04-14T03:14:02.875Z,79.80
2018-04-14T03:16:31.157Z,79.20
2018-04-14T03:18:59.428Z,78.60
2018-04-14T03:21:27.712Z,74.93
2018-04-14T03:23:55.974Z,74.73
2018-04-14T03:26:24.268Z,77.50
2018-04-14T03:28:52.543Z,80.77
2018-04-14T03:31:20.845Z,77.40
2018-04-14T03:33:49.108Z,81.80
2018-04-14T03:36:17.430Z,75.70
2018-04-14T03:38:45.695Z,77.33
2018-04-14T03:41:13.963Z,78.07
2018-04-14T03:43:43.012Z,74.90
2018-04-14T03:46:11.281Z,79.07
2018-04-14T03:48:39.566Z,74.40
2018-04-14T03:51:07.844Z,72.77
2018-04-14T03:53:36.125Z,76.27
2018-04-14T03:56:04.390Z,71.00
2018-04-14T03:58:32.680Z,79.10
2018-04-14T04:01:00.967Z,75.00
2018-04-14T04:03:30.019Z,76.77
2018-04-14T04:05:58.299Z,73.53
2018-04-14T04:08:26.579Z,79.33
2018-04-14T04:10:54.851Z,73.80
2018-04-14T04:13:23.138Z,74.87
2018-04-14T04:15:51.409Z,77.23
2018-04-14T04:18:31.613Z,74.03
2018-04-14T04:21:11.830Z,80.93
2018-04-14T04:23:52.018Z,77.77
2018-04-14T04:26:20.044Z,78.67
2018-04-14T04:28:48.083Z,78.03
2018-04-14T04:31:16.880Z,75.70
2018-04-14T04:33:44.910Z,79.60
2018-04-14T04:36:12.931Z,76.87
2018-04-14T04:38:41.780Z,80.47
2018-04-14T04:41:10.575Z,80.63
2018-04-14T04:43:39.382Z,78.80
2018-04-14T04:46:07.407Z,84.70
2018-04-14T04:48:35.456Z,87.03
2018-04-14T04:51:03.486Z,84.47
2018-04-14T04:53:31.523Z,82.83
2018-04-14T04:55:59.550Z,78.87
2018-04-14T04:58:27.586Z,77.60
2018-04-14T05:00:55.619Z,82.13
2018-04-14T05:03:23.666Z,74.87
2018-04-14T05:05:52.477Z,78.93
2018-04-14T05:08:20.500Z,84.20
2018-04-14T05:10:48.546Z,72.30
2018-04-14T05:13:17.347Z,78.67
2018-04-14T05:15:45.372Z,75.50
2018-04-14T05:18:13.405Z,79.37
2018-04-14T05:20:41.443Z,78.87
2018-04-14T05:23:09.471Z,73.80
2018-04-14T05:25:37.735Z,71.27
2018-04-14T05:28:06.531Z,75.40
2018-04-14T05:30:34.589Z,71.50
2018-04-14T05:33:02.611Z,78.67
2018-04-14T05:35:31.419Z,72.67
2018-04-14T05:37:59.441Z,77.20
2018-04-14T05:40:32.019Z,71.93
2018-04-14T05:42:59.990Z,72.10
2018-04-14T05:45:28.759Z,73.63
2018-04-14T05:47:56.758Z,74.60
2018-04-14T05:50:25.527Z,74.93
2018-04-14T05:52:54.291Z,74.97
2018-04-14T05:55:22.299Z,76.07
2018-04-14T05:57:50.290Z,70.60
2018-04-14T06:00:18.328Z,67.83
2018-04-14T06:02:47.103Z,67.93
2018-04-14T06:05:15.106Z,71.33
2018-04-14T06:07:43.104Z,68.00
2018-04-14T06:10:11.109Z,67.73
2018-04-14T06:12:40.271Z,69.93
2018-04-14T06:15:08.243Z,70.53
2018-04-14T06:17:36.246Z,68.83
2018-04-14T06:20:05.015Z,71.17
2018-04-14T06:22:33.049Z,63.90
2018-04-14T06:25:20.759Z,72.30
2018-04-14T06:27:52.102Z,68.37
2018-04-14T06:30:20.100Z,71.67
2018-04-14T06:32:48.117Z,61.50
2018-04-14T06:35:16.867Z,64.83
2018-04-14T06:37:44.879Z,69.00
2018-04-14T06:40:13.646Z,66.10
2018-04-14T06:42:42.418Z,67.13
2018-04-14T06:45:10.419Z,68.27
2018-04-14T06:47:39.189Z,65.77
2018-04-14T06:50:08.015Z,67.67
2018-04-14T06:52:35.958Z,65.07
2018-04-14T06:55:04.718Z,68.03
2018-04-14T06:57:33.679Z,64.00
2018-04-14T07:00:01.685Z,69.67
2018-04-14T07:02:29.684Z,63.97
2018-04-14T07:04:57.730Z,62.43
2018-04-14T07:07:25.691Z,66.13
2018-04-14T07:09:54.855Z,64.60
2018-04-14T07:12:22.868Z,65.60
2018-04-14T07:14:51.623Z,66.20
2018-04-14T07:17:19.880Z,63.43
2018-04-14T07:19:47.871Z,62.93
2018-04-14T07:22:15.878Z,57.20
2018-04-14T07:24:43.874Z,57.70
2018-04-14T07:27:11.878Z,59.27
2018-04-14T07:29:39.883Z,51.67
2018-04-14T07:32:07.900Z,54.90
2018-04-14T07:34:35.899Z,53.70
2018-04-14T07:37:05.146Z,50.17
2018-04-14T07:39:33.126Z,52.97
2018-04-14T07:42:01.123Z,53.07
2018-04-14T07:44:29.903Z,48.00
2018-04-14T07:46:57.896Z,50.30
2018-04-14T07:49:26.674Z,49.90
2018-04-14T07:51:55.425Z,50.67
2018-04-14T07:54:23.432Z,49.33
2018-04-14T07:56:52.673Z,50.83
2018-04-14T07:59:20.660Z,50.13
2018-04-14T08:01:48.661Z,49.80
2018-04-14T08:04:17.439Z,51.83
2018-04-14T08:06:46.204Z,50.57
2018-04-14T08:09:14.208Z,50.60
2018-04-14T08:11:42.977Z,49.37
2018-04-14T08:14:10.978Z,52.17
2018-04-14T08:16:38.980Z,47.60
2018-04-14T08:19:06.988Z,51.17
2018-04-14T08:21:35.747Z,53.03
2018-04-14T08:24:03.759Z,51.37
2018-04-14T08:26:31.751Z,51.77
2018-04-14T08:28:59.763Z,50.30
2018-04-14T08:31:27.760Z,51.27
2018-04-14T08:33:56.527Z,48.90
2018-04-14T08:36:25.294Z,47.50
2018-04-14T08:38:53.312Z,48.60
2018-04-14T08:41:21.308Z,47.97
2018-04-14T08:43:49.306Z,48.93
2018-04-14T08:46:17.317Z,49.27
2018-04-14T08:48:45.309Z,48.13
2018-04-14T08:51:13.318Z,47.73
2018-04-14T08:53:41.314Z,45.47
2018-04-14T08:56:09.323Z,47.67
2018-04-14T08:58:37.316Z,50.80
2018-04-14T09:01:05.326Z,51.00
2018-04-14T09:03:33.317Z,44.90
2018-04-14T09:06:01.332Z,46.83
2018-04-14T09:08:29.318Z,46.83
2018-04-14T09:10:57.733Z,45.77
2018-04-14T09:13:25.699Z,50.30
2018-04-14T09:15:53.705Z,46.47
2018-04-14T09:18:21.945Z,47.77
2018-04-14T09:20:50.199Z,49.13
2018-04-14T09:23:18.434Z,48.17
2018-04-14T09:25:46.687Z,47.20
2018-04-14T09:28:14.928Z,44.67
2018-04-14T09:30:43.179Z,47.00
2018-04-14T09:33:11.414Z,50.20
2018-04-14T09:35:39.671Z,47.03
2018-04-14T09:38:08.679Z,44.10
2018-04-14T09:40:37.698Z,47.13
2018-04-14T09:43:06.336Z,45.90
2018-04-14T09:45:34.588Z,46.57
2018-04-14T09:48:02.827Z,47.13
2018-04-14T09:50:31.078Z,45.07
2018-04-14T09:52:59.641Z,40.33
2018-04-14T09:55:28.651Z,40.97
2018-04-14T09:57:56.909Z,43.87
2018-04-14T10:00:27.700Z,41.17
2018-04-14T10:02:59.864Z,40.20
2018-04-14T10:05:28.811Z,37.47
2018-04-14T10:07:57.067Z,38.00
2018-04-14T10:10:26.090Z,38.20
2018-04-14T10:12:55.091Z,38.77
2018-04-14T10:15:23.331Z,40.87
2018-04-14T10:17:52.355Z,38.30
2018-04-14T10:20:20.620Z,40.33
2018-04-14T10:22:48.879Z,40.07
2018-04-14T10:25:17.882Z,40.57
2018-04-14T10:27:46.130Z,41.33
2018-04-14T10:30:15.133Z,40.40
2018-04-14T10:32:44.158Z,38.37
2018-04-14T10:35:12.380Z,37.43
2018-04-14T10:37:40.636Z,41.57
2018-04-14T10:40:08.874Z,34.63
2018-04-14T10:42:37.128Z,39.33
2018-04-14T10:45:05.364Z,40.00
2018-04-14T10:47:33.616Z,39.30
2018-04-14T10:50:01.868Z,41.03
2018-04-14T10:52:30.113Z,36.87
2018-04-14T10:54:59.406Z,38.53
2018-04-14T10:57:28.418Z,36.37
2018-04-14T10:59:56.657Z,36.30
2018-04-14T11:02:24.919Z,35.80
2018-04-14T11:04:53.153Z,39.30
2018-04-14T11:07:21.455Z,37.47
2018-04-14T11:09:49.709Z,36.60
2018-04-14T11:12:17.951Z,35.40
2018-04-14T11:14:46.974Z,36.23
2018-04-14T11:17:15.221Z,37.97
2018-04-14T11:19:44.236Z,37.73
2018-04-14T11:22:12.482Z,37.30
2018-04-14T11:24:41.502Z,36.23
2018-04-14T11:27:09.747Z,36.10
2018-04-14T11:29:38.758Z,34.90
2018-04-14T11:32:07.002Z,35.13
2018-04-14T11:34:36.015Z,33.57
2018-04-14T11:37:04.260Z,36.03
2018-04-14T11:39:32.503Z,37.67
2018-04-14T11:42:00.743Z,37.13
2018-04-14T11:44:29.002Z,37.33
2018-04-14T11:46:58.007Z,35.30
2018-04-14T11:49:26.265Z,38.87
2018-04-14T11:51:55.266Z,38.00
2018-04-14T11:54:24.283Z,39.23
2018-04-14T11:56:52.827Z,38.67
2018-04-14T11:59:21.839Z,36.23
2018-04-14T12:01:50.843Z,38.47
2018-04-14T12:04:19.104Z,38.63
2018-04-14T12:06:47.332Z,38.03
2018-04-14T12:09:15.591Z,34.97
2018-04-14T12:11:43.823Z,37.97
2018-04-14T12:14:12.078Z,40.13
2018-04-14T12:16:41.091Z,39.97
2018-04-14T12:19:09.343Z,38.40
2018-04-14T12:21:38.017Z,36.57
2018-04-14T12:24:06.227Z,39.97
2018-04-14T12:26:34.478Z,36.70
2018-04-14T12:29:03.482Z,38.23
2018-04-14T12:31:31.741Z,37.60
2018-04-14T12:34:00.742Z,40.87
2018-04-14T12:36:29.772Z,40.83
2018-04-14T12:38:57.999Z,39.17
2018-04-14T12:41:27.015Z,38.60
2018-04-14T12:43:55.256Z,42.43
2018-04-14T12:46:23.507Z,43.23
2018-04-14T12:48:51.748Z,40.03
2018-04-14T12:51:19.999Z,40.77
2018-04-14T12:53:48.234Z,42.87
2018-04-14T12:56:16.485Z,43.73
2018-04-14T12:58:44.723Z,44.13
2018-04-14T13:01:12.975Z,42.43
2018-04-14T13:03:41.983Z,46.77
2018-04-14T13:06:11.002Z,40.00
2018-04-14T13:08:39.238Z,44.07
2018-04-14T13:11:08.259Z,44.10
2018-04-14T13:13:36.499Z,41.90
2018-04-14T13:16:05.802Z,44.30
2018-04-14T13:18:34.794Z,39.50
2018-04-14T13:21:03.814Z,42.93
2018-04-14T13:23:32.055Z,40.37
2018-04-14T13:26:01.090Z,43.10
2018-04-14T13:28:29.323Z,41.37
2018-04-14T13:30:58.326Z,42.57
2018-04-14T13:33:27.342Z,44.30
2018-04-14T13:35:55.580Z,41.97
2018-04-14T13:38:24.604Z,43.53
2018-04-14T13:40:52.839Z,43.27
2018-04-14T13:43:21.420Z,43.27
2018-04-14T13:45:49.634Z,42.97
2018-04-14T13:48:18.276Z,43.07
2018-04-14T13:50:46.488Z,43.27
2018-04-14T13:53:14.735Z,43.63
2018-04-14T13:55:44.055Z,45.70
2018-04-14T13:58:13.056Z,44.83
2018-04-14T14:00:41.299Z,46.77
2018-04-14T14:03:10.688Z,44.83
2018-04-14T14:05:38.894Z,44.57
2018-04-14T14:08:07.146Z,46.30
2018-04-14T14:10:36.155Z,45.60
2018-04-14T14:13:04.674Z,43.17
2018-04-14T14:15:32.906Z,46.90
2018-04-14T14:18:01.903Z,46.80
2018-04-14T14:20:30.144Z,45.60
2018-04-14T14:22:58.398Z,42.73
2018-04-14T14:25:26.641Z,44.67
2018-04-14T14:27:54.890Z,43.30
2018-04-14T14:30:23.893Z,45.90
2018-04-14T14:32:52.145Z,43.30
2018-04-14T14:35:21.152Z,43.20
2018-04-14T14:37:49.403Z,42.37
2018-04-14T14:40:18.411Z,44.77
2018-04-14T14:42:47.506Z,42.47
2018-04-14T14:45:15.690Z,44.90
2018-04-14T14:47:43.940Z,43.87
2018-04-14T14:50:18.715Z,46.93
2018-04-14T14:52:46.938Z,45.50
2018-04-14T14:55:15.959Z,45.53
2018-04-14T14:57:44.191Z,44.80
2018-04-14T15:00:12.687Z,43.97
2018-04-14T15:02:41.716Z,45.77
2018-04-14T15:05:10.702Z,46.77
2018-04-14T15:07:38.946Z,44.53
2018-04-14T15:10:07.959Z,47.27
2018-04-14T15:12:36.195Z,47.20
2018-04-14T15:15:04.439Z,45.73
2018-04-14T15:17:32.697Z,46.43
2018-04-14T15:20:00.925Z,49.80
2018-04-14T15:22:29.922Z,47.00
2018-04-14T15:24:58.930Z,45.20
2018-04-14T15:27:27.174Z,46.53
2018-04-14T15:29:55.415Z,47.77
2018-04-14T15:32:23.653Z,49.70
2018-04-14T15:34:51.903Z,47.57
2018-04-14T15:37:20.903Z,49.13
2018-04-14T15:39:49.918Z,51.47
2018-04-14T15:42:18.156Z,48.63
2018-04-14T15:44:46.404Z,49.13
2018-04-14T15:47:14.631Z,47.77
2018-04-14T15:49:42.883Z,49.77
2018-04-14T15:52:11.884Z,47.63
2018-04-14T15:54:40.907Z,54.17
2018-04-14T15:57:09.150Z,48.57
2018-04-14T15:59:38.167Z,50.33
2018-04-14T16:02:06.406Z,47.37
2018-04-14T16:04:35.432Z,54.33
2018-04-14T16:07:04.432Z,48.27
2018-04-14T16:09:32.663Z,46.80
2018-04-14T16:12:01.686Z,48.50
2018-04-14T16:14:29.934Z,50.47
2018-04-14T16:16:59.077Z,47.97
2018-04-14T16:19:27.298Z,46.87
2018-04-14T16:21:56.327Z,45.23
2018-04-14T16:24:24.566Z,44.77
2018-04-14T16:26:53.579Z,47.90
2018-04-14T16:29:21.821Z,43.23
2018-04-14T16:31:50.069Z,42.00
2018-04-14T16:34:18.372Z,40.03
2018-04-14T16:36:46.619Z,42.33
2018-04-14T16:39:15.134Z,40.30
2018-04-14T16:41:44.151Z,43.33
2018-04-14T16:44:12.392Z,40.83
2018-04-14T16:46:40.639Z,39.63
2018-04-14T16:49:09.023Z,43.10
2018-04-14T16:51:37.280Z,40.97
2018-04-14T16:54:05.538Z,37.27
2018-04-14T16:56:33.795Z,37.63
2018-04-14T16:59:02.154Z,38.53
2018-04-14T17:01:31.178Z,38.43
2018-04-14T17:03:59.772Z,39.67
2018-04-14T17:06:28.026Z,40.60
2018-04-14T17:08:56.308Z,42.57
2018-04-14T17:11:24.588Z,42.40
2018-04-14T17:13:52.827Z,41.40
2018-04-14T17:16:21.831Z,40.63
2018-04-14T17:18:50.174Z,40.80
2018-04-14T17:21:18.379Z,40.47
2018-04-14T17:23:47.386Z,41.73
2018-04-14T17:26:15.699Z,42.00
2018-04-14T17:28:43.939Z,40.10
2018-04-14T17:31:12.180Z,39.50
2018-04-14T17:33:41.192Z,39.27
2018-04-14T17:36:11.003Z,42.27
2018-04-14T17:38:39.267Z,40.67
2018-04-14T17:41:08.267Z,41.47
2018-04-14T17:43:36.555Z,42.13
2018-04-14T17:46:04.795Z,41.40
2018-04-14T17:48:33.814Z,43.80
2018-04-14T17:51:02.375Z,39.17
2018-04-14T17:53:31.412Z,40.87
2018-04-14T17:55:59.670Z,39.37
2018-04-14T17:58:34.619Z,38.27
2018-04-14T18:01:02.895Z,40.47
2018-04-14T18:03:32.076Z,41.13
2018-04-14T18:06:03.682Z,40.80
2018-04-14T18:08:31.898Z,41.13
2018-04-14T18:11:00.139Z,43.50
2018-04-14T18:13:29.165Z,46.60
2018-04-14T18:15:57.401Z,42.97
2018-04-14T18:18:25.642Z,42.57
2018-04-14T18:20:54.017Z,43.33
2018-04-14T18:23:22.270Z,40.33
2018-04-14T18:25:50.503Z,45.17
2018-04-14T18:28:19.591Z,45.03
2018-04-14T18:30:48.594Z,43.90
2018-04-14T18:33:17.620Z,44.10
2018-04-14T18:35:45.940Z,43.30
2018-04-14T18:38:14.170Z,44.00
2018-04-14T18:40:42.422Z,44.40
2018-04-14T18:43:10.665Z,40.93
2018-04-14T18:45:38.921Z,36.67
2018-04-14T18:48:07.159Z,42.33
2018-04-14T18:50:35.406Z,41.70
2018-04-14T18:53:04.413Z,44.27
2018-04-14T18:55:32.662Z,43.67
2018-04-14T18:58:01.671Z,44.33
2018-04-14T19:00:30.683Z,48.77
2018-04-14T19:02:58.923Z,44.47
2018-04-14T19:05:27.947Z,46.33
2018-04-14T19:07:56.184Z,45.73
2018-04-14T19:10:25.251Z,44.27
2018-04-14T19:12:53.467Z,45.43
2018-04-14T19:15:22.034Z,42.90
2018-04-14T19:17:51.041Z,43.17
2018-04-14T19:20:20.055Z,45.47
2018-04-14T19:22:48.291Z,45.20
2018-04-14T19:25:17.410Z,47.57
2018-04-14T19:27:46.388Z,47.07
2018-04-14T19:30:15.401Z,48.07
2018-04-14T19:32:43.639Z,47.53
2018-04-14T19:35:11.882Z,45.10
2018-04-14T19:37:40.904Z,46.10
2018-04-14T19:40:09.123Z,51.20
2018-04-14T19:42:37.359Z,48.67
2018-04-14T19:45:06.370Z,49.37
2018-04-14T19:47:34.593Z,46.17
2018-04-14T19:50:02.830Z,51.60
2018-04-14T19:52:31.078Z,49.27
2018-04-14T19:55:00.367Z,50.93
2018-04-14T19:57:28.609Z,51.70
2018-04-14T19:59:56.850Z,48.70
2018-04-14T20:02:25.091Z,50.03
2018-04-14T20:04:54.098Z,50.33
2018-04-14T20:07:22.346Z,49.30
2018-04-14T20:09:50.575Z,47.30
2018-04-14T20:12:18.827Z,52.57
2018-04-14T20:14:47.280Z,48.53
2018-04-14T20:17:15.519Z,53.50
2018-04-14T20:19:43.761Z,49.27
2018-04-14T20:22:11.990Z,51.50
2018-04-14T20:24:40.222Z,55.80
2018-04-14T20:27:08.463Z,62.87
2018-04-14T20:29:37.458Z,65.50
2018-04-14T20:32:05.712Z,56.87
2018-04-14T20:34:34.705Z,59.23
2018-04-14T20:37:04.003Z,57.80
2018-04-14T20:39:32.230Z,54.60
2018-04-14T20:42:00.475Z,54.77
2018-04-14T20:44:28.699Z,53.33
2018-04-14T20:46:56.940Z,55.77
2018-04-14T20:49:25.171Z,48.47
2018-04-14T20:51:54.179Z,52.97
2018-04-14T20:54:23.174Z,51.20
2018-04-14T20:56:51.428Z,52.37
2018-04-14T20:59:20.427Z,47.50
2018-04-14T21:01:49.448Z,53.13
2018-04-14T21:04:17.682Z,51.73
2018-04-14T21:06:45.913Z,55.77
2018-04-14T21:09:14.155Z,48.73
2018-04-14T21:11:42.441Z,54.60
2018-04-14T21:14:10.679Z,48.00
2018-04-14T21:16:39.684Z,49.30
2018-04-14T21:19:08.699Z,55.40
2018-04-14T21:21:36.931Z,57.00
2018-04-14T21:24:05.168Z,56.63
2018-04-14T21:26:33.403Z,51.73
2018-04-14T21:29:01.648Z,56.03
2018-04-14T21:31:29.875Z,54.77
2018-04-14T21:33:58.114Z,49.43
2018-04-14T21:36:27.111Z,51.73
2018-04-14T21:38:56.122Z,52.77
2018-04-14T21:41:24.354Z,53.33
2018-04-14T21:43:52.599Z,49.73
2018-04-14T21:46:20.831Z,51.60
2018-04-14T21:48:49.071Z,57.80
2018-04-14T21:51:17.291Z,54.50
2018-04-14T21:53:45.893Z,52.93
2018-04-14T21:56:14.071Z,55.20
2018-04-14T21:58:42.354Z,57.30
2018-04-14T22:01:14.958Z,56.83
2018-04-14T22:03:43.174Z,52.97
2018-04-14T22:06:11.415Z,53.47
2018-04-14T22:08:40.415Z,55.83
2018-04-14T22:11:09.406Z,57.33
2018-04-14T22:13:37.656Z,52.97
2018-04-14T22:16:05.883Z,51.63
2018-04-14T22:18:34.116Z,58.00
2018-04-14T22:21:03.122Z,51.30
2018-04-14T22:23:31.748Z,59.40
2018-04-14T22:25:59.988Z,62.93
2018-04-14T22:28:28.206Z,54.03
2018-04-14T22:30:56.452Z,55.00
2018-04-14T22:33:24.693Z,49.10
2018-04-14T22:35:53.707Z,53.43
2018-04-14T22:38:22.463Z,58.63
2018-04-14T22:40:50.699Z,56.87
2018-04-14T22:43:18.927Z,54.17
2018-04-14T22:45:47.174Z,54.70
2018-04-14T22:48:15.399Z,52.27
2018-04-14T22:50:43.642Z,51.07
2018-04-14T22:53:12.644Z,57.00
2018-04-14T22:55:40.891Z,61.23
2018-04-14T22:58:09.128Z,55.50
2018-04-14T23:00:37.743Z,52.40
2018-04-14T23:03:06.511Z,55.83
2018-04-14T23:05:34.758Z,54.20
2018-04-14T23:08:02.983Z,47.70
2018-04-14T23:10:31.234Z,49.20
2018-04-14T23:12:59.472Z,52.17
2018-04-14T23:15:27.712Z,50.40
2018-04-14T23:17:56.707Z,52.63
2018-04-14T23:20:25.727Z,50.47
2018-04-14T23:22:53.952Z,55.50
2018-04-14T23:25:22.191Z,59.07
2018-04-14T23:27:50.426Z,53.37
2018-04-14T23:30:19.434Z,53.63
2018-04-14T23:32:47.672Z,55.43
2018-04-14T23:35:16.672Z,51.33
2018-04-14T23:37:45.678Z,62.13
2018-04-14T23:40:13.911Z,62.07
2018-04-14T23:42:42.150Z,56.37
2018-04-14T23:45:10.778Z,56.57
2018-04-14T23:47:38.995Z,54.23
2018-04-14T23:50:07.231Z,55.23
2018-04-14T23:52:35.472Z,56.03
2018-04-14T23:55:03.698Z,57.53
2018-04-14T23:57:31.975Z,51.90
